Weather at Aviosuperficie Pegaso Flying Club

Public forecast

Using degrees Celsius for public forecast. Weather courtesy of forecast.io.

Closest aviation weather report (METAR) to Aviosuperficie Pegaso Flying Club

Report is more than 6 hours old.

Closest report is Frosinone Air Base, 7.0 nm (13.0 km) NNW.

2024/07/19 17:55 (retrieved 22 hours ago)

LIRH 191755Z 00000KT CAVOK 32/17 Q1012 RMK SKC MON LIB NC VIS MIN 9999 WIND THR16 00000KT BLU

Closest aviation forecast (TAF) to Aviosuperficie Pegaso Flying Club

Closest forecast is Ciampino–G. B. Pastine International Airport, 38.1 nm (70.5 km) WNW.

2024/07/20 12:21 (retrieved 3 hours ago)

TAF LIRA 201100Z 2012/2112 26010KT CAVOK BECMG 2016/2018 VRB05KT BECMG 2110/2112 26010KT